Time;durP1;ratioP1;P1;durP2;ratioP2;P2;SDS_P1;SDS_P2;PMS_P1;PMS_P2;Temp;Humidity;BMP_temperature;BMP_pressure;BME280_temperature;BME280_humidity;BME280_pressure;Samples;Min_cycle;Max_cycle;Signal;HPM_P1;HPM_P2
2021/10/01 00:02:07;;;;;;;3.85;1.65;;;;;;;10.09;100.00;101291.97;5055264;28;20623;-67
2021/10/01 00:04:36;;;;;;;2.50;1.40;;;;;;;10.12;100.00;101289.00;5054936;28;20329;-66
2021/10/01 00:07:04;;;;;;;1.55;1.20;;;;;;;10.26;100.00;101283.19;5060021;28;20056;-67
2021/10/01 00:09:34;;;;;;;3.10;1.58;;;;;;;10.14;100.00;101289.72;5058827;28;20048;-66
2021/10/01 00:12:02;;;;;;;5.45;1.67;;;;;;;10.12;100.00;101268.53;5060246;28;20040;-66
2021/10/01 00:14:31;;;;;;;5.20;1.50;;;;;;;10.08;100.00;101276.94;5060271;28;20041;-66
2021/10/01 00:16:59;;;;;;;5.65;1.60;;;;;;;10.15;100.00;101264.72;5060314;28;20057;-66
2021/10/01 00:19:28;;;;;;;4.80;1.83;;;;;;;10.06;100.00;101273.59;5060501;28;20102;-66
2021/10/01 00:21:56;;;;;;;3.95;1.45;;;;;;;9.92;100.00;101273.13;5056493;28;20395;-66
2021/10/01 00:24:24;;;;;;;3.83;1.38;;;;;;;9.98;100.00;101267.19;5059022;28;20074;-66
2021/10/01 00:26:51;;;;;;;5.10;1.60;;;;;;;9.86;100.00;101270.19;5058830;28;20439;-66
2021/10/01 00:29:19;;;;;;;2.67;1.50;;;;;;;9.82;100.00;101256.28;5057081;28;20071;-66
2021/10/01 00:31:48;;;;;;;3.20;1.90;;;;;;;9.73;100.00;101258.03;5052502;28;20092;-66
2021/10/01 00:34:16;;;;;;;6.13;1.80;;;;;;;9.67;100.00;101255.09;5060575;28;20332;-66
2021/10/01 00:36:44;;;;;;;3.38;1.60;;;;;;;9.59;100.00;101256.66;5059466;28;20039;-66
2021/10/01 00:39:13;;;;;;;1.88;1.27;;;;;;;9.74;100.00;101254.38;5059024;28;20332;-67
2021/10/01 00:41:41;;;;;;;7.10;1.80;;;;;;;9.62;100.00;101259.03;5057608;28;20032;-66
2021/10/01 00:44:09;;;;;;;4.80;1.60;;;;;;;9.69;100.00;101255.81;5058103;28;20032;-66
2021/10/01 00:46:37;;;;;;;5.20;1.65;;;;;;;9.65;100.00;101253.44;5054717;28;20098;-66
2021/10/01 00:49:06;;;;;;;6.03;1.80;;;;;;;9.65;100.00;101250.78;5054818;28;20052;-67
2021/10/01 00:51:35;;;;;;;7.10;1.35;;;;;;;9.69;100.00;101243.31;5057413;28;20522;-67
2021/10/01 00:54:04;;;;;;;5.43;1.50;;;;;;;9.58;100.00;101241.69;5055088;28;20036;-66
2021/10/01 00:56:31;;;;;;;2.88;1.80;;;;;;;9.62;100.00;101237.69;5059746;28;20053;-66
2021/10/01 00:58:59;;;;;;;3.78;1.45;;;;;;;9.60;100.00;101241.53;5058947;28;20331;-67
2021/10/01 01:01:27;;;;;;;7.07;2.35;;;;;;;9.59;100.00;101235.34;5058312;28;20086;-66
2021/10/01 01:04:00;;;;;;;2.55;1.25;;;;;;;9.86;100.00;101220.34;5053436;28;20328;-67
2021/10/01 01:06:35;;;;;;;7.30;1.73;;;;;;;10.03;100.00;101213.38;5058639;28;20045;-66
2021/10/01 01:09:08;;;;;;;7.32;1.90;;;;;;;10.04;100.00;101212.38;5056767;28;20415;-66
2021/10/01 01:11:45;;;;;;;6.20;1.60;;;;;;;10.19;100.00;101209.19;5055839;28;20052;-66
2021/10/01 01:14:17;;;;;;;1.55;1.40;;;;;;;10.40;100.00;101206.25;5056079;28;20045;-66
2021/10/01 01:16:46;;;;;;;4.90;2.53;;;;;;;10.39;100.00;101209.91;5054316;28;20122;-67
2021/10/01 01:19:27;;;;;;;2.97;1.33;;;;;;;10.33;100.00;101217.53;5058427;28;20278;-66
2021/10/01 01:22:05;;;;;;;4.38;1.50;;;;;;;10.20;100.00;101222.38;5056990;28;20379;-66
2021/10/01 01:24:59;;;;;;;2.40;1.50;;;;;;;10.29;100.00;101215.28;5056711;28;20036;-67
2021/10/01 01:27:45;;;;;;;6.63;1.65;;;;;;;10.32;100.00;101212.34;5049221;28;20057;-67
2021/10/01 01:30:16;;;;;;;3.67;1.85;;;;;;;10.39;100.00;101202.78;5057542;28;20045;-66
2021/10/01 01:32:48;;;;;;;5.22;1.50;;;;;;;10.16;100.00;101211.19;5051891;28;20049;-67
2021/10/01 01:35:19;;;;;;;4.82;1.92;;;;;;;10.03;100.00;101200.03;5055153;28;20037;-67
2021/10/01 01:37:52;;;;;;;3.08;1.52;;;;;;;9.84;100.00;101201.00;5054455;28;20333;-66
2021/10/01 01:40:23;;;;;;;3.70;1.63;;;;;;;9.82;100.00;101202.94;5055189;28;20440;-67
2021/10/01 01:42:53;;;;;;;3.75;1.67;;;;;;;9.88;100.00;101190.84;5057400;28;20117;-67
2021/10/01 01:45:22;;;;;;;6.25;1.58;;;;;;;9.75;100.00;101185.88;5057156;28;20048;-66
2021/10/01 01:47:52;;;;;;;2.58;1.80;;;;;;;9.72;100.00;101187.00;5055962;28;20120;-67
2021/10/01 01:50:21;;;;;;;4.40;1.30;;;;;;;9.64;100.00;101184.25;5058114;28;20044;-67
2021/10/01 01:52:49;;;;;;;2.58;1.65;;;;;;;9.64;100.00;101173.59;5053954;28;20033;-67
2021/10/01 01:55:17;;;;;;;4.38;1.45;;;;;;;9.76;100.00;101179.56;5057539;28;20044;-66
2021/10/01 01:57:48;;;;;;;4.03;1.75;;;;;;;10.00;100.00;101163.81;5056575;28;20045;-66
2021/10/01 02:00:16;;;;;;;2.78;1.58;;;;;;;9.99;100.00;101163.97;5061262;28;20040;-67
2021/10/01 02:02:45;;;;;;;3.28;1.60;;;;;;;10.09;100.00;101162.09;5050557;28;20040;-66
2021/10/01 02:05:15;;;;;;;3.30;1.88;;;;;;;9.98;100.00;101157.78;5055687;28;20040;-66
2021/10/01 02:07:44;;;;;;;2.65;1.38;;;;;;;10.03;100.00;101148.50;5057702;28;20043;-66
2021/10/01 02:10:13;;;;;;;3.88;1.23;;;;;;;10.00;100.00;101144.28;5052605;28;20086;-66
2021/10/01 02:12:41;;;;;;;4.47;1.63;;;;;;;9.98;100.00;101144.44;5053357;28;20044;-67
2021/10/01 02:15:10;;;;;;;5.97;1.65;;;;;;;9.89;100.00;101155.19;5054026;28;20429;-66
2021/10/01 02:17:39;;;;;;;3.72;1.27;;;;;;;9.86;100.00;101145.66;5049341;28;20056;-67
2021/10/01 02:20:08;;;;;;;5.95;1.50;;;;;;;9.79;100.00;101144.56;5056091;28;20048;-67
2021/10/01 02:22:38;;;;;;;2.40;1.45;;;;;;;9.69;100.00;101138.47;5050105;28;20053;-66
2021/10/01 02:25:06;;;;;;;3.10;1.42;;;;;;;9.72;100.00;101139.00;5058271;28;20090;-67
2021/10/01 02:27:36;;;;;;;2.72;1.42;;;;;;;9.61;100.00;101132.06;5057344;28;20394;-66
2021/10/01 02:30:08;;;;;;;3.47;1.45;;;;;;;9.54;100.00;101125.66;5052968;28;20051;-66
2021/10/01 02:32:42;;;;;;;2.90;1.60;;;;;;;9.52;100.00;101130.28;5050610;28;20081;-66
2021/10/01 02:35:10;;;;;;;4.90;1.73;;;;;;;9.55;100.00;101127.28;5053290;28;20424;-66
2021/10/01 02:37:39;;;;;;;5.78;1.50;;;;;;;9.42;100.00;101119.66;5055340;28;20041;-67
2021/10/01 02:40:09;;;;;;;3.97;1.65;;;;;;;9.44;100.00;101115.03;5056547;28;20072;-66
2021/10/01 02:42:37;;;;;;;4.30;1.20;;;;;;;9.27;100.00;101111.31;5050276;28;20049;-67
2021/10/01 02:45:08;;;;;;;3.90;1.70;;;;;;;9.50;100.00;101099.41;5058073;28;20398;-66
2021/10/01 02:47:36;;;;;;;5.60;1.70;;;;;;;9.53;100.00;101101.78;5051502;28;20290;-66
2021/10/01 02:50:08;;;;;;;4.90;1.52;;;;;;;9.33;100.00;101101.03;5050244;28;20048;-66
2021/10/01 02:52:41;;;;;;;7.32;1.52;;;;;;;9.30;100.00;101087.03;5050658;28;20312;-66
2021/10/01 02:55:13;;;;;;;2.65;0.90;;;;;;;9.34;100.00;101097.41;5054536;28;20051;-67
2021/10/01 02:57:44;;;;;;;5.15;1.52;;;;;;;9.48;100.00;101083.56;5054418;28;20353;-66
2021/10/01 03:00:13;;;;;;;1.30;1.20;;;;;;;9.45;100.00;101078.53;5052076;28;20044;-66
2021/10/01 03:02:42;;;;;;;2.38;1.38;;;;;;;9.56;100.00;101062.31;5052622;28;20043;-67
2021/10/01 03:05:11;;;;;;;5.88;1.60;;;;;;;9.45;100.00;101051.88;5053585;28;20071;-66
2021/10/01 03:07:43;;;;;;;1.85;1.27;;;;;;;9.54;100.00;101048.31;5055949;28;20045;-66
2021/10/01 03:10:12;;;;;;;10.70;1.70;;;;;;;9.56;100.00;101045.50;5056718;28;20049;-66
2021/10/01 03:12:41;;;;;;;2.65;1.40;;;;;;;9.42;100.00;101052.19;5049412;28;20037;-66
2021/10/01 03:15:10;;;;;;;1.38;1.10;;;;;;;9.44;100.00;101050.19;5055130;28;20278;-67
2021/10/01 03:17:39;;;;;;;5.40;1.30;;;;;;;9.42;100.00;101042.34;5051491;28;20041;-66
2021/10/01 03:20:08;;;;;;;3.00;1.40;;;;;;;9.47;100.00;101042.75;5056568;28;20053;-66
2021/10/01 03:22:39;;;;;;;2.70;1.30;;;;;;;9.40;100.00;101038.16;5055638;28;20229;-66
2021/10/01 03:25:09;;;;;;;3.25;1.45;;;;;;;9.22;100.00;101030.97;5054583;28;20325;-67
2021/10/01 03:27:37;;;;;;;1.90;1.08;;;;;;;9.17;100.00;101035.94;5055377;28;20475;-66
2021/10/01 03:30:07;;;;;;;7.18;1.55;;;;;;;9.18;100.00;101026.94;5054429;28;20045;-66
2021/10/01 03:32:36;;;;;;;4.35;1.40;;;;;;;9.00;100.00;101031.38;5049602;28;20033;-66
2021/10/01 03:35:05;;;;;;;4.15;1.65;;;;;;;9.14;100.00;101028.19;5055266;28;20091;-66
2021/10/01 03:37:33;;;;;;;3.90;1.40;;;;;;;8.96;100.00;101021.00;5059343;28;20040;-66
2021/10/01 03:40:05;;;;;;;1.48;0.85;;;;;;;8.92;100.00;101018.81;5057052;28;20590;-66
2021/10/01 03:42:35;;;;;;;5.22;1.38;;;;;;;8.95;100.00;101018.50;5054539;28;20052;-67
2021/10/01 03:45:04;;;;;;;1.65;0.95;;;;;;;8.91;100.00;101017.13;5060095;28;20044;-67
2021/10/01 03:47:32;;;;;;;1.80;1.05;;;;;;;8.83;100.00;101019.66;5057891;28;20052;-67
2021/10/01 03:50:00;;;;;;;5.15;1.92;;;;;;;8.84;100.00;101014.19;5055237;28;20269;-66
2021/10/01 03:52:28;;;;;;;5.65;1.40;;;;;;;8.83;100.00;101014.34;5056358;28;20041;-66
2021/10/01 03:54:56;;;;;;;5.78;1.65;;;;;;;8.79;100.00;101016.47;5056554;28;20037;-66
2021/10/01 03:57:24;;;;;;;3.35;1.17;;;;;;;8.96;100.00;101009.53;5057779;28;20582;-66
2021/10/01 03:59:53;;;;;;;4.03;1.10;;;;;;;8.91;100.00;101004.63;5056585;28;20101;-66
2021/10/01 04:02:21;;;;;;;4.13;1.42;;;;;;;8.92;100.00;101008.97;5054032;28;20048;-66
2021/10/01 04:04:49;;;;;;;2.20;1.17;;;;;;;8.94;100.00;101011.50;5053789;28;20486;-66
2021/10/01 04:07:17;;;;;;;4.13;1.00;;;;;;;8.86;100.00;100993.59;5060037;28;20099;-67
2021/10/01 04:09:45;;;;;;;4.13;1.25;;;;;;;8.83;100.00;100993.91;5057040;28;20040;-66
2021/10/01 04:12:13;;;;;;;3.78;1.42;;;;;;;8.82;100.00;101002.84;5055628;28;20091;-66
2021/10/01 04:14:41;;;;;;;4.18;1.20;;;;;;;8.79;100.00;100992.50;5057240;28;20056;-67
2021/10/01 04:17:10;;;;;;;1.00;0.88;;;;;;;8.98;100.00;100993.41;5059029;28;20044;-66
2021/10/01 04:19:38;;;;;;;4.85;1.27;;;;;;;8.90;100.00;100994.97;5057026;28;20093;-66
2021/10/01 04:22:06;;;;;;;2.25;1.30;;;;;;;8.81;100.00;100987.84;5051359;28;20051;-66
2021/10/01 04:24:34;;;;;;;3.28;1.27;;;;;;;8.78;100.00;100982.84;5058431;28;20044;-67
2021/10/01 04:27:02;;;;;;;3.22;1.20;;;;;;;8.82;100.00;100984.22;5058284;28;20040;-67
2021/10/01 04:29:29;;;;;;;5.65;1.80;;;;;;;8.89;100.00;100985.31;5056315;28;20283;-66
2021/10/01 04:31:58;;;;;;;5.13;1.30;;;;;;;8.88;100.00;100977.47;5053799;28;20360;-66
2021/10/01 04:34:29;;;;;;;2.38;1.27;;;;;;;8.92;100.00;100973.53;5052492;28;20460;-67
2021/10/01 04:36:57;;;;;;;2.78;1.02;;;;;;;8.99;100.00;100971.94;5057031;28;20113;-66
2021/10/01 04:39:25;;;;;;;3.08;1.27;;;;;;;9.25;100.00;100971.22;5059994;28;20041;-67
2021/10/01 04:41:53;;;;;;;2.90;1.20;;;;;;;9.24;100.00;100970.38;5058650;28;20071;-67
2021/10/01 04:44:20;;;;;;;4.03;1.13;;;;;;;9.16;100.00;100972.09;5056727;28;20091;-67
2021/10/01 04:46:49;;;;;;;5.72;1.50;;;;;;;9.14;100.00;100974.91;5058213;28;20049;-67
2021/10/01 04:49:16;;;;;;;1.08;0.98;;;;;;;9.18;100.00;100972.81;5054900;28;20103;-66
2021/10/01 04:51:46;;;;;;;4.65;1.60;;;;;;;9.03;100.00;100973.31;5051396;28;20718;-67
2021/10/01 04:54:13;;;;;;;3.65;1.05;;;;;;;9.16;100.00;100977.44;5054876;28;20504;-66
2021/10/01 04:56:41;;;;;;;2.03;1.10;;;;;;;9.29;100.00;100969.94;5055034;28;20320;-66
2021/10/01 04:59:09;;;;;;;2.55;1.08;;;;;;;9.45;100.00;100971.91;5055532;28;20060;-66
2021/10/01 05:01:37;;;;;;;3.60;1.10;;;;;;;9.63;100.00;100964.75;5053686;28;20090;-66
2021/10/01 05:04:05;;;;;;;5.32;1.20;;;;;;;9.62;100.00;100957.72;5052786;28;20119;-66
2021/10/01 05:06:33;;;;;;;4.85;1.50;;;;;;;9.63;100.00;100962.06;5059437;28;20115;-66
2021/10/01 05:09:02;;;;;;;1.40;0.88;;;;;;;9.63;100.00;100961.25;5052537;28;20059;-67
2021/10/01 05:11:33;;;;;;;2.92;1.10;;;;;;;9.69;100.00;100959.78;5055155;28;20073;-67
2021/10/01 05:14:01;;;;;;;4.25;1.52;;;;;;;9.68;100.00;100956.28;5052371;28;20041;-66
2021/10/01 05:16:29;;;;;;;2.58;1.30;;;;;;;9.77;100.00;100955.38;5055406;28;20044;-66
2021/10/01 05:18:58;;;;;;;1.88;1.20;;;;;;;9.55;100.00;100956.66;5051552;28;20045;-66
2021/10/01 05:21:26;;;;;;;1.30;1.00;;;;;;;9.56;100.00;100944.19;5052112;28;20346;-66
2021/10/01 05:23:54;;;;;;;3.83;1.08;;;;;;;9.60;100.00;100943.72;5056487;28;20041;-66
2021/10/01 05:26:23;;;;;;;2.03;0.85;;;;;;;9.60;100.00;100946.38;5055926;28;20585;-67
2021/10/01 05:28:53;;;;;;;2.75;0.82;;;;;;;9.65;100.00;100946.78;5055124;28;20102;-66
2021/10/01 05:31:21;;;;;;;2.25;1.10;;;;;;;9.73;100.00;100942.50;5051760;28;20064;-66
2021/10/01 05:33:49;;;;;;;2.72;1.00;;;;;;;9.83;100.00;100940.56;5048423;28;20566;-67
2021/10/01 05:36:17;;;;;;;5.85;1.30;;;;;;;10.00;100.00;100939.69;5056591;28;20079;-67
2021/10/01 05:38:45;;;;;;;2.55;1.00;;;;;;;10.06;100.00;100945.41;5052706;28;22076;-66
2021/10/01 05:41:13;;;;;;;2.55;1.13;;;;;;;10.30;100.00;100937.53;5053431;28;20048;-66
2021/10/01 05:43:42;;;;;;;2.30;1.30;;;;;;;10.20;100.00;100934.16;5051051;28;20198;-66
2021/10/01 05:46:10;;;;;;;8.15;1.40;;;;;;;10.22;100.00;100921.50;5054554;28;20044;-66
2021/10/01 05:48:41;;;;;;;2.33;1.20;;;;;;;10.24;100.00;100934.69;5056191;28;20436;-66
2021/10/01 05:51:11;;;;;;;3.65;1.15;;;;;;;10.22;100.00;100933.97;5054190;28;20477;-66
2021/10/01 05:53:49;;;;;;;3.83;1.13;;;;;;;10.12;100.00;100937.63;5051909;28;20354;-66
2021/10/01 05:56:17;;;;;;;2.85;1.20;;;;;;;10.33;100.00;100939.06;5055773;28;20376;-67
2021/10/01 05:58:47;;;;;;;1.80;1.10;;;;;;;10.23;100.00;100938.34;5053318;28;20049;-67
2021/10/01 06:01:15;;;;;;;2.10;1.02;;;;;;;10.34;100.00;100944.25;5055229;28;20047;-67
2021/10/01 06:03:43;;;;;;;3.55;1.20;;;;;;;10.45;100.00;100937.00;5048868;28;20037;-67
2021/10/01 06:06:11;;;;;;;1.15;1.02;;;;;;;10.53;100.00;100934.34;5055726;28;20044;-67
2021/10/01 06:08:39;;;;;;;6.40;1.65;;;;;;;10.78;100.00;100934.47;5058281;28;20052;-67
2021/10/01 06:11:07;;;;;;;6.07;1.40;;;;;;;10.65;100.00;100929.56;5055123;28;20053;-66
2021/10/01 06:13:36;;;;;;;3.58;1.10;;;;;;;10.66;100.00;100929.41;5052986;28;20045;-66
2021/10/01 06:16:07;;;;;;;2.10;1.35;;;;;;;10.62;100.00;100932.56;5053699;28;20067;-66
2021/10/01 06:18:35;;;;;;;6.03;1.35;;;;;;;10.80;100.00;100924.44;5052682;28;20294;-65
2021/10/01 06:21:03;;;;;;;3.72;1.20;;;;;;;10.68;100.00;100919.38;5053324;28;20045;-66
2021/10/01 06:23:34;;;;;;;4.18;1.52;;;;;;;10.69;100.00;100928.25;5051786;28;20066;-66
2021/10/01 06:26:05;;;;;;;4.80;1.40;;;;;;;10.67;100.00;100925.75;5051109;28;20041;-66
2021/10/01 06:28:33;;;;;;;2.85;0.70;;;;;;;10.63;100.00;100921.72;5054759;28;20036;-66
2021/10/01 06:31:02;;;;;;;4.30;1.08;;;;;;;10.67;100.00;100930.22;5053839;28;20394;-66
2021/10/01 06:33:31;;;;;;;5.05;1.52;;;;;;;10.65;100.00;100929.56;5050952;28;20049;-66
2021/10/01 06:35:59;;;;;;;3.00;1.30;;;;;;;10.49;100.00;100931.16;5052689;28;20053;-66
2021/10/01 06:38:30;;;;;;;4.45;1.40;;;;;;;10.47;100.00;100935.81;5054588;28;20049;-67
2021/10/01 06:40:59;;;;;;;4.22;1.42;;;;;;;10.34;100.00;100930.91;5049958;28;20041;-65
2021/10/01 06:43:27;;;;;;;2.42;1.35;;;;;;;10.06;100.00;100946.22;5052381;28;20381;-65
2021/10/01 06:45:56;;;;;;;3.45;1.60;;;;;;;10.07;100.00;100945.25;5052811;28;20044;-64
2021/10/01 06:48:31;;;;;;;6.55;1.38;;;;;;;10.09;100.00;100942.41;5052505;28;20041;-64
2021/10/01 08:19:39;;;;;;;5.47;1.48;;;;;;;14.05;100.00;100870.22;5056075;28;20045;-66
2021/10/01 08:22:08;;;;;;;4.47;1.60;;;;;;;14.00;100.00;100881.50;5056649;28;20060;-66
2021/10/01 08:24:37;;;;;;;2.33;1.30;;;;;;;14.00;100.00;100870.75;5055178;28;20090;-67
2021/10/01 08:27:05;;;;;;;4.20;1.00;;;;;;;13.85;100.00;100876.13;5058048;28;20080;-66
2021/10/01 08:29:34;;;;;;;5.50;1.40;;;;;;;14.22;100.00;100876.25;5056462;28;20178;-66
2021/10/01 08:32:03;;;;;;;4.45;1.75;;;;;;;13.84;100.00;100892.44;5056495;28;20356;-66
2021/10/01 08:34:32;;;;;;;2.72;1.70;;;;;;;14.21;100.00;100882.63;5051339;28;20056;-66
2021/10/01 08:37:01;;;;;;;4.55;1.13;;;;;;;14.25;100.00;100881.25;5056524;28;20471;-66
2021/10/01 08:39:30;;;;;;;6.30;1.60;;;;;;;14.14;100.00;100871.78;5060079;28;20040;-67
2021/10/01 08:41:58;;;;;;;6.35;1.38;;;;;;;13.95;100.00;100879.38;5056046;28;20044;-66
2021/10/01 08:44:30;;;;;;;3.10;1.30;;;;;;;14.64;100.00;100866.66;5056045;28;20448;-66
2021/10/01 08:47:02;;;;;;;2.33;1.30;;;;;;;14.76;100.00;100857.09;5056132;28;20443;-66
2021/10/01 08:49:31;;;;;;;1.60;1.00;;;;;;;14.57;100.00;100861.19;5054753;28;20045;-66
2021/10/01 08:51:59;;;;;;;5.50;1.35;;;;;;;14.04;100.00;100863.19;5058078;28;20044;-66
2021/10/01 08:54:27;;;;;;;3.30;1.25;;;;;;;13.88;100.00;100840.03;5054782;28;20041;-66
2021/10/01 08:56:55;;;;;;;3.15;1.25;;;;;;;14.15;100.00;100851.13;5055445;28;20049;-66
2021/10/01 08:59:24;;;;;;;4.70;1.20;;;;;;;13.95;100.00;100846.34;5058649;28;20588;-66
2021/10/01 09:01:52;;;;;;;7.55;1.55;;;;;;;14.16;100.00;100842.91;5056038;28;20048;-66
2021/10/01 09:04:21;;;;;;;3.55;1.40;;;;;;;13.95;100.00;100847.16;5057958;28;20044;-67
2021/10/01 09:06:49;;;;;;;2.97;1.33;;;;;;;13.86;100.00;100836.69;5055825;28;20045;-66
2021/10/01 09:09:20;;;;;;;6.55;1.70;;;;;;;13.65;100.00;100837.41;5058030;28;20071;-67
2021/10/01 09:11:48;;;;;;;3.60;1.40;;;;;;;13.84;100.00;100828.00;5052853;28;20072;-65
2021/10/01 09:14:20;;;;;;;4.15;1.40;;;;;;;14.05;100.00;100835.31;5058949;28;20051;-66
2021/10/01 09:16:48;;;;;;;6.05;1.40;;;;;;;13.51;100.00;100829.16;5053325;28;20436;-66
2021/10/01 09:19:20;;;;;;;4.32;1.38;;;;;;;13.80;100.00;100840.94;5054904;28;20048;-66
2021/10/01 09:21:51;;;;;;;8.55;1.55;;;;;;;14.26;100.00;100837.22;5054837;28;20049;-66
2021/10/01 09:24:25;;;;;;;4.70;1.67;;;;;;;14.08;100.00;100824.22;5057545;28;20428;-65
2021/10/01 09:26:55;;;;;;;5.68;1.45;;;;;;;14.05;100.00;100824.59;5055486;28;20041;-65
2021/10/01 09:29:26;;;;;;;4.75;1.40;;;;;;;14.20;100.00;100819.19;5055510;28;20056;-66
2021/10/01 09:31:55;;;;;;;4.15;2.20;;;;;;;14.71;100.00;100821.88;5052460;28;20064;-66
2021/10/01 09:34:46;;;;;;;5.22;1.60;;;;;;;14.75;100.00;100828.53;5056145;28;20076;-66
2021/10/01 09:37:21;;;;;;;2.53;1.30;;;;;;;15.19;100.00;100815.13;5050229;28;20057;-66
2021/10/01 09:39:52;;;;;;;;;;;;;;;14.99;100.00;100818.44;5052343;28;20055;-71
2021/10/01 09:42:22;;;;;;;5.43;2.00;;;;;;;14.58;100.00;100819.03;5055262;28;20206;-70
2021/10/01 09:44:51;;;;;;;3.72;1.40;;;;;;;14.87;100.00;100806.53;5056353;28;20274;-70
2021/10/01 09:47:26;;;;;;;1.92;1.10;;;;;;;14.95;100.00;100798.34;5055177;28;20044;-70
2021/10/01 09:50:00;;;;;;;3.38;1.25;;;;;;;15.07;100.00;100787.91;5056569;28;20126;-70
2021/10/01 09:52:41;;;;;;;5.03;1.48;;;;;;;15.57;100.00;100795.97;5049612;28;20068;-70
2021/10/01 09:55:10;;;;;;;2.53;1.20;;;;;;;15.70;100.00;100798.72;5055182;28;20087;-70
2021/10/01 09:57:39;;;;;;;4.63;1.70;;;;;;;15.20;100.00;100787.22;5054351;28;20041;-70
2021/10/01 10:00:08;;;;;;;2.80;1.45;;;;;;;15.23;100.00;100787.63;5055776;28;20428;-70
2021/10/01 10:02:36;;;;;;;5.65;1.52;;;;;;;15.38;100.00;100774.09;5051870;28;20048;-70
2021/10/01 10:05:06;;;;;;;5.03;1.38;;;;;;;14.79;100.00;100777.94;5056699;28;20270;-71
2021/10/01 10:07:39;;;;;;;4.20;1.30;;;;;;;14.84;100.00;100796.16;5055678;28;20052;-69
2021/10/01 10:10:09;;;;;;;3.97;1.52;;;;;;;15.20;100.00;100781.81;5056536;28;20382;-69
2021/10/01 10:12:41;;;;;;;2.75;1.55;;;;;;;15.40;100.00;100790.03;5050790;28;20106;-69
2021/10/01 10:15:12;;;;;;;5.65;1.27;;;;;;;15.43;100.00;100768.94;5054102;28;20357;-72
2021/10/01 10:17:47;;;;;;;4.25;1.63;;;;;;;15.52;100.00;100790.31;5051998;28;20052;-69
2021/10/01 10:20:18;;;;;;;2.08;1.10;;;;;;;16.02;100.00;100799.16;5055947;28;20052;-70
2021/10/01 10:22:47;;;;;;;3.63;1.70;;;;;;;16.28;100.00;100797.63;5051762;28;20041;-70
2021/10/01 10:25:14;;;;;;;3.67;1.10;;;;;;;16.38;100.00;100791.84;5056304;28;20344;-69
2021/10/01 10:27:42;;;;;;;2.55;1.30;;;;;;;16.91;100.00;100797.41;5056622;28;20051;-69
2021/10/01 10:30:13;;;;;;;5.15;1.50;;;;;;;17.23;100.00;100783.31;5053353;28;20393;-69
2021/10/01 10:32:41;;;;;;;5.22;1.73;;;;;;;16.68;100.00;100781.56;5052289;28;20044;-69
2021/10/01 10:35:11;;;;;;;3.72;1.45;;;;;;;16.78;100.00;100786.56;5054124;28;20040;-70
2021/10/01 10:37:42;;;;;;;4.53;1.20;;;;;;;16.05;100.00;100787.13;5056078;28;20459;-70
2021/10/01 10:40:12;;;;;;;4.65;1.40;;;;;;;16.63;100.00;100794.84;5053822;28;20051;-71
2021/10/01 10:42:41;;;;;;;1.75;1.20;;;;;;;16.24;100.00;100780.19;5051291;28;20037;-69
2021/10/01 10:45:17;;;;;;;3.97;1.30;;;;;;;16.02;100.00;100801.84;5054436;28;20048;-69
2021/10/01 10:47:48;;;;;;;5.93;1.75;;;;;;;16.32;100.00;100788.91;5053141;28;20049;-69
2021/10/01 10:50:47;;;;;;;2.65;1.10;;;;;;;16.09;100.00;100791.94;5054572;28;20048;-68
2021/10/01 10:53:28;;;;;;;3.88;1.10;;;;;;;15.57;100.00;100793.28;5053191;28;20061;-69
2021/10/01 10:56:02;;;;;;;2.13;1.20;;;;;;;16.09;100.00;100789.25;5052977;28;20048;-70
2021/10/01 10:58:42;;;;;;;1.58;1.20;;;;;;;16.00;100.00;100785.91;5056342;28;20037;-68
2021/10/01 11:01:34;;;;;;;3.30;1.00;;;;;;;16.84;100.00;100786.56;5056305;28;20040;-69
2021/10/01 11:04:36;;;;;;;3.58;1.40;;;;;;;16.36;100.00;100778.56;5051000;28;20328;-70
2021/10/01 11:07:06;;;;;;;6.20;1.48;;;;;;;16.85;100.00;100780.16;5050805;28;20353;-69
2021/10/01 11:09:38;;;;;;;4.15;1.40;;;;;;;16.68;100.00;100778.84;5056901;28;20051;-69
2021/10/01 11:12:24;;;;;;;3.90;1.27;;;;;;;16.35;100.00;100771.53;5055635;28;20041;-69
2021/10/01 11:15:23;;;;;;;4.07;1.40;;;;;;;16.55;100.00;100768.06;5056826;28;20053;-69
2021/10/01 11:18:13;;;;;;;4.43;1.40;;;;;;;16.14;100.00;100775.16;4999690;28;20041;-68
2021/10/01 11:20:41;;;;;;;7.28;1.58;;;;;;;16.80;100.00;100773.72;5049616;28;20109;-69
2021/10/01 11:23:16;;;;;;;2.90;1.30;;;;;;;16.57;100.00;100774.06;5054612;28;20049;-69
2021/10/01 11:25:47;;;;;;;4.80;2.13;;;;;;;16.50;100.00;100774.03;5052894;28;20437;-68
2021/10/01 11:28:14;;;;;;;5.63;1.92;;;;;;;16.27;100.00;100774.38;5051420;28;20091;-69
2021/10/01 11:30:47;;;;;;;3.55;0.95;;;;;;;15.94;100.00;100783.16;5058045;28;20107;-69
2021/10/01 11:33:15;;;;;;;4.10;1.60;;;;;;;15.71;100.00;100789.63;5048519;28;20045;-68
2021/10/01 11:35:48;;;;;;;5.57;1.73;;;;;;;15.86;100.00;100780.63;5058373;28;20060;-69
2021/10/01 11:38:21;;;;;;;5.47;1.25;;;;;;;15.34;100.00;100786.28;5051650;28;20049;-69
2021/10/01 11:41:03;;;;;;;1.60;1.17;;;;;;;15.64;100.00;100786.88;5052050;28;20126;-69
2021/10/01 11:43:31;;;;;;;6.68;1.40;;;;;;;15.43;100.00;100784.25;5054376;28;20098;-69
2021/10/01 11:45:59;;;;;;;4.47;1.17;;;;;;;15.10;100.00;100777.59;5051408;28;20051;-69
2021/10/01 11:48:34;;;;;;;2.08;1.13;;;;;;;14.66;100.00;100778.63;5051951;28;20114;-66
2021/10/01 11:51:02;;;;;;;;;;;;;;;14.56;100.00;100780.75;5056900;28;20396;-67
2021/10/01 11:53:34;;;;;;;3.38;1.35;;;;;;;14.84;100.00;100796.16;5048360;28;19925;-66
2021/10/01 11:56:07;;;;;;;4.75;1.45;;;;;;;14.49;100.00;100787.91;5061957;28;20056;-66
2021/10/01 11:58:38;;;;;;;9.73;1.67;;;;;;;14.62;100.00;100786.22;5056367;28;20075;-73
2021/10/01 12:01:10;;;;;;;7.05;1.77;;;;;;;14.89;100.00;100793.75;5057713;28;20354;-71
2021/10/01 12:03:48;;;;;;;1.92;1.30;;;;;;;15.03;100.00;100779.41;5052717;28;20056;-70
2021/10/01 12:06:20;;;;;;;2.10;1.23;;;;;;;15.37;100.00;100769.75;5053599;28;20329;-70
2021/10/01 12:08:59;;;;;;;3.45;1.90;;;;;;;15.80;100.00;100766.09;5059535;28;20492;-69
2021/10/01 12:11:30;;;;;;;3.40;1.33;;;;;;;15.50;100.00;100747.47;5054029;28;20041;-71
2021/10/01 12:14:09;;;;;;;2.55;1.35;;;;;;;15.80;100.00;100753.47;5056059;28;20106;-71
2021/10/01 12:16:39;;;;;;;4.15;1.45;;;;;;;16.83;100.00;100741.75;5056908;28;20045;-71
2021/10/01 12:19:08;;;;;;;2.58;1.45;;;;;;;17.15;100.00;100733.91;5056684;28;20460;-70
2021/10/01 12:21:37;;;;;;;4.03;1.30;;;;;;;17.16;100.00;100724.75;5060193;28;20224;-71
2021/10/01 12:24:10;;;;;;;2.22;1.95;;;;;;;16.71;100.00;100729.91;5056267;28;20503;-71
2021/10/01 12:26:40;;;;;;;1.17;1.08;;;;;;;17.80;100.00;100718.81;5058225;28;20416;-67
2021/10/01 12:29:12;;;;;;;2.25;1.38;;;;;;;17.35;100.00;100716.84;5056635;28;20045;-70
2021/10/01 12:31:44;;;;;;;4.20;1.30;;;;;;;17.14;100.00;100710.66;5055977;28;20063;-71
2021/10/01 12:34:17;;;;;;;3.63;1.27;;;;;;;17.94;100.00;100706.13;5052510;28;20114;-70
2021/10/01 12:36:47;;;;;;;5.03;1.20;;;;;;;17.14;100.00;100709.84;5056861;28;20369;-70
2021/10/01 12:39:16;;;;;;;2.65;1.00;;;;;;;16.68;100.00;100716.84;5054001;28;20040;-71
2021/10/01 12:41:45;;;;;;;6.78;1.52;;;;;;;16.15;100.00;100721.09;5058090;28;20044;-72
2021/10/01 12:44:16;;;;;;;5.20;1.00;;;;;;;16.41;100.00;100721.38;5053951;28;20044;-72
2021/10/01 12:46:47;;;;;;;4.65;1.08;;;;;;;15.62;100.00;100732.44;5052891;28;20033;-71
2021/10/01 12:49:21;;;;;;;8.45;1.50;;;;;;;15.78;100.00;100728.56;5055065;28;20310;-71
2021/10/01 12:52:10;;;;;;;3.78;1.30;;;;;;;15.59;100.00;100723.91;5056849;28;20037;-71
2021/10/01 12:54:44;;;;;;;5.35;1.40;;;;;;;15.46;100.00;100712.03;5060497;28;20041;-71
2021/10/01 12:57:33;;;;;;;2.35;1.30;;;;;;;15.28;100.00;100722.47;5058131;28;20416;-71
2021/10/01 13:00:17;;;;;;;3.88;1.10;;;;;;;15.40;100.00;100723.59;5055318;28;20055;-71
2021/10/01 13:02:47;;;;;;;3.17;1.35;;;;;;;14.96;100.00;100730.13;5054263;28;20452;-71
2021/10/01 13:05:21;;;;;;;4.03;1.58;;;;;;;15.04;100.00;100732.66;5054393;28;20098;-71
2021/10/01 13:07:50;;;;;;;3.83;1.60;;;;;;;14.94;100.00;100738.38;5057307;28;20059;-71